sensor_id;sensor_type;location;lat;lon;timestamp;temperature;humidity
9033;DHT22;4551;53.164;8.210;2022-10-23T00:01:42;11.70;99.90
9033;DHT22;4551;53.164;8.210;2022-10-23T00:04:11;11.70;99.90
9033;DHT22;4551;53.164;8.210;2022-10-23T00:06:39;11.80;99.90
9033;DHT22;4551;53.164;8.210;2022-10-23T00:09:08;11.80;99.90
9033;DHT22;4551;53.164;8.210;2022-10-23T00:11:36;11.80;99.90
9033;DHT22;4551;53.164;8.210;2022-10-23T00:14:05;11.80;99.90
9033;DHT22;4551;53.164;8.210;2022-10-23T00:16:33;11.80;99.90
9033;DHT22;4551;53.164;8.210;2022-10-23T00:19:03;11.80;99.90
9033;DHT22;4551;53.164;8.210;2022-10-23T00:21:31;11.80;99.90
9033;DHT22;4551;53.164;8.210;2022-10-23T00:23:59;11.80;99.90
9033;DHT22;4551;53.164;8.210;2022-10-23T00:26:27;11.70;99.90
9033;DHT22;4551;53.164;8.210;2022-10-23T00:28:55;11.70;99.90
9033;DHT22;4551;53.164;8.210;2022-10-23T00:31:23;11.50;99.90
9033;DHT22;4551;53.164;8.210;2022-10-23T00:33:52;11.70;99.90
9033;DHT22;4551;53.164;8.210;2022-10-23T00:36:21;11.70;99.90
9033;DHT22;4551;53.164;8.210;2022-10-23T00:38:49;11.70;99.90
9033;DHT22;4551;53.164;8.210;2022-10-23T00:41:18;11.70;99.90
9033;DHT22;4551;53.164;8.210;2022-10-23T00:43:57;11.60;99.90
9033;DHT22;4551;53.164;8.210;2022-10-23T00:46:25;11.60;99.90
9033;DHT22;4551;53.164;8.210;2022-10-23T00:48:53;11.60;99.90
9033;DHT22;4551;53.164;8.210;2022-10-23T00:51:23;11.60;99.90
9033;DHT22;4551;53.164;8.210;2022-10-23T00:53:52;11.60;99.90
9033;DHT22;4551;53.164;8.210;2022-10-23T00:56:38;11.60;99.90
9033;DHT22;4551;53.164;8.210;2022-10-23T00:59:06;11.00;99.90
9033;DHT22;4551;53.164;8.210;2022-10-23T01:01:34;11.60;99.90
9033;DHT22;4551;53.164;8.210;2022-10-23T01:04:04;11.50;99.90
9033;DHT22;4551;53.164;8.210;2022-10-23T01:06:34;11.50;99.90
9033;DHT22;4551;53.164;8.210;2022-10-23T01:09:06;11.50;99.90
9033;DHT22;4551;53.164;8.210;2022-10-23T01:11:38;11.50;99.90
9033;DHT22;4551;53.164;8.210;2022-10-23T01:14:09;11.50;99.90
9033;DHT22;4551;53.164;8.210;2022-10-23T01:16:44;11.50;99.90
9033;DHT22;4551;53.164;8.210;2022-10-23T01:19:16;11.40;99.90
9033;DHT22;4551;53.164;8.210;2022-10-23T01:21:52;11.40;99.90
9033;DHT22;4551;53.164;8.210;2022-10-23T01:24:29;11.40;99.90
9033;DHT22;4551;53.164;8.210;2022-10-23T01:27:20;11.40;99.90
9033;DHT22;4551;53.164;8.210;2022-10-23T01:29:50;11.40;99.90
9033;DHT22;4551;53.164;8.210;2022-10-23T01:32:21;11.40;99.90
9033;DHT22;4551;53.164;8.210;2022-10-23T01:34:55;11.40;99.90
9033;DHT22;4551;53.164;8.210;2022-10-23T01:37:37;11.40;99.90
9033;DHT22;4551;53.164;8.210;2022-10-23T01:40:08;11.30;99.90
9033;DHT22;4551;53.164;8.210;2022-10-23T01:42:38;11.40;99.90
9033;DHT22;4551;53.164;8.210;2022-10-23T01:45:08;11.30;99.90
9033;DHT22;4551;53.164;8.210;2022-10-23T01:47:39;11.30;99.90
9033;DHT22;4551;53.164;8.210;2022-10-23T01:50:09;11.30;99.90
9033;DHT22;4551;53.164;8.210;2022-10-23T01:52:38;11.60;99.90
9033;DHT22;4551;53.164;8.210;2022-10-23T01:55:06;11.30;99.90
9033;DHT22;4551;53.164;8.210;2022-10-23T01:57:38;11.30;99.90
9033;DHT22;4551;53.164;8.210;2022-10-23T02:00:08;12.30;99.90
9033;DHT22;4551;53.164;8.210;2022-10-23T02:02:36;11.30;99.90
9033;DHT22;4551;53.164;8.210;2022-10-23T02:05:05;11.30;99.90
9033;DHT22;4551;53.164;8.210;2022-10-23T02:07:34;11.20;99.90
9033;DHT22;4551;53.164;8.210;2022-10-23T02:10:02;11.20;99.90
9033;DHT22;4551;53.164;8.210;2022-10-23T02:12:31;11.20;99.90
9033;DHT22;4551;53.164;8.210;2022-10-23T02:15:06;11.20;99.90
9033;DHT22;4551;53.164;8.210;2022-10-23T02:17:39;11.20;99.90
9033;DHT22;4551;53.164;8.210;2022-10-23T02:20:12;11.10;99.90
9033;DHT22;4551;53.164;8.210;2022-10-23T02:22:45;11.10;99.90
9033;DHT22;4551;53.164;8.210;2022-10-23T02:25:16;12.40;99.90
9033;DHT22;4551;53.164;8.210;2022-10-23T02:27:45;11.10;99.90
9033;DHT22;4551;53.164;8.210;2022-10-23T02:30:16;11.10;99.90
9033;DHT22;4551;53.164;8.210;2022-10-23T02:32:45;11.10;99.90
9033;DHT22;4551;53.164;8.210;2022-10-23T02:35:14;11.10;99.90
9033;DHT22;4551;53.164;8.210;2022-10-23T02:37:42;11.00;99.90
9033;DHT22;4551;53.164;8.210;2022-10-23T02:40:11;11.00;99.90
9033;DHT22;4551;53.164;8.210;2022-10-23T02:42:40;11.00;99.90
9033;DHT22;4551;53.164;8.210;2022-10-23T02:45:10;11.00;99.90
9033;DHT22;4551;53.164;8.210;2022-10-23T02:47:45;10.90;99.90
9033;DHT22;4551;53.164;8.210;2022-10-23T02:50:20;10.90;99.90
9033;DHT22;4551;53.164;8.210;2022-10-23T02:52:52;10.90;99.90
9033;DHT22;4551;53.164;8.210;2022-10-23T02:55:25;10.90;99.90
9033;DHT22;4551;53.164;8.210;2022-10-23T02:57:59;10.80;99.90
9033;DHT22;4551;53.164;8.210;2022-10-23T03:00:30;10.80;99.90
9033;DHT22;4551;53.164;8.210;2022-10-23T03:03:01;10.80;99.90
9033;DHT22;4551;53.164;8.210;2022-10-23T03:05:30;10.80;99.90
9033;DHT22;4551;53.164;8.210;2022-10-23T03:07:58;10.80;99.90
9033;DHT22;4551;53.164;8.210;2022-10-23T03:10:29;10.80;99.90
9033;DHT22;4551;53.164;8.210;2022-10-23T03:12:57;10.70;99.90
9033;DHT22;4551;53.164;8.210;2022-10-23T03:15:25;10.70;99.90
9033;DHT22;4551;53.164;8.210;2022-10-23T03:17:53;10.70;99.90
9033;DHT22;4551;53.164;8.210;2022-10-23T03:20:22;10.70;99.90
9033;DHT22;4551;53.164;8.210;2022-10-23T03:22:50;10.70;99.90
9033;DHT22;4551;53.164;8.210;2022-10-23T03:25:18;10.70;99.90
9033;DHT22;4551;53.164;8.210;2022-10-23T03:27:46;10.70;99.90
9033;DHT22;4551;53.164;8.210;2022-10-23T03:30:13;10.70;99.90
9033;DHT22;4551;53.164;8.210;2022-10-23T03:32:41;10.60;99.90
9033;DHT22;4551;53.164;8.210;2022-10-23T03:35:10;10.60;99.90
9033;DHT22;4551;53.164;8.210;2022-10-23T03:37:39;10.60;99.90
9033;DHT22;4551;53.164;8.210;2022-10-23T03:40:08;10.60;99.90
9033;DHT22;4551;53.164;8.210;2022-10-23T03:42:36;10.60;99.90
9033;DHT22;4551;53.164;8.210;2022-10-23T03:45:04;10.60;99.90
9033;DHT22;4551;53.164;8.210;2022-10-23T03:47:32;10.50;99.90
9033;DHT22;4551;53.164;8.210;2022-10-23T03:50:07;10.50;99.90
9033;DHT22;4551;53.164;8.210;2022-10-23T03:52:35;10.50;99.90
9033;DHT22;4551;53.164;8.210;2022-10-23T03:55:05;10.40;99.90
9033;DHT22;4551;53.164;8.210;2022-10-23T03:57:33;10.50;99.90
9033;DHT22;4551;53.164;8.210;2022-10-23T04:00:01;10.50;99.90
9033;DHT22;4551;53.164;8.210;2022-10-23T04:02:29;10.50;99.90
9033;DHT22;4551;53.164;8.210;2022-10-23T04:04:57;10.50;99.90
9033;DHT22;4551;53.164;8.210;2022-10-23T04:07:25;10.50;99.90
9033;DHT22;4551;53.164;8.210;2022-10-23T04:09:53;10.50;99.90
9033;DHT22;4551;53.164;8.210;2022-10-23T04:12:22;10.50;99.90
9033;DHT22;4551;53.164;8.210;2022-10-23T04:14:50;10.50;99.90
9033;DHT22;4551;53.164;8.210;2022-10-23T04:17:18;10.50;99.90
9033;DHT22;4551;53.164;8.210;2022-10-23T04:19:46;10.60;99.90
9033;DHT22;4551;53.164;8.210;2022-10-23T04:22:14;10.60;99.90
9033;DHT22;4551;53.164;8.210;2022-10-23T04:24:42;10.60;99.90
9033;DHT22;4551;53.164;8.210;2022-10-23T04:27:12;10.60;99.90
9033;DHT22;4551;53.164;8.210;2022-10-23T04:29:41;10.60;99.90
9033;DHT22;4551;53.164;8.210;2022-10-23T04:32:09;10.60;99.90
9033;DHT22;4551;53.164;8.210;2022-10-23T04:34:37;10.60;99.90
9033;DHT22;4551;53.164;8.210;2022-10-23T04:37:05;10.60;99.90
9033;DHT22;4551;53.164;8.210;2022-10-23T04:39:33;10.60;99.90
9033;DHT22;4551;53.164;8.210;2022-10-23T04:42:01;10.60;99.90
9033;DHT22;4551;53.164;8.210;2022-10-23T04:44:29;10.50;99.90
9033;DHT22;4551;53.164;8.210;2022-10-23T04:46:58;10.50;99.90
9033;DHT22;4551;53.164;8.210;2022-10-23T04:49:26;10.50;99.90
9033;DHT22;4551;53.164;8.210;2022-10-23T04:51:54;10.50;99.90
9033;DHT22;4551;53.164;8.210;2022-10-23T04:54:22;10.50;99.90
9033;DHT22;4551;53.164;8.210;2022-10-23T04:56:50;10.50;99.90
9033;DHT22;4551;53.164;8.210;2022-10-23T04:59:18;10.50;99.90
9033;DHT22;4551;53.164;8.210;2022-10-23T05:01:46;10.50;99.90
9033;DHT22;4551;53.164;8.210;2022-10-23T05:04:15;10.50;99.90
9033;DHT22;4551;53.164;8.210;2022-10-23T05:06:43;10.50;99.90
9033;DHT22;4551;53.164;8.210;2022-10-23T05:09:11;10.40;99.90
9033;DHT22;4551;53.164;8.210;2022-10-23T05:11:39;10.40;99.90
9033;DHT22;4551;53.164;8.210;2022-10-23T05:14:07;10.40;99.90
9033;DHT22;4551;53.164;8.210;2022-10-23T05:16:35;10.40;99.90
9033;DHT22;4551;53.164;8.210;2022-10-23T05:19:04;10.40;99.90
9033;DHT22;4551;53.164;8.210;2022-10-23T05:21:35;10.30;99.90
9033;DHT22;4551;53.164;8.210;2022-10-23T05:24:05;10.30;99.90
9033;DHT22;4551;53.164;8.210;2022-10-23T05:26:33;10.30;99.90
9033;DHT22;4551;53.164;8.210;2022-10-23T05:29:01;10.30;99.90
9033;DHT22;4551;53.164;8.210;2022-10-23T05:31:29;10.30;99.90
9033;DHT22;4551;53.164;8.210;2022-10-23T05:33:57;10.50;99.90
9033;DHT22;4551;53.164;8.210;2022-10-23T05:36:25;10.30;99.90
9033;DHT22;4551;53.164;8.210;2022-10-23T05:38:54;10.30;99.90
9033;DHT22;4551;53.164;8.210;2022-10-23T05:41:23;10.30;99.90
9033;DHT22;4551;53.164;8.210;2022-10-23T05:43:51;10.30;99.90
9033;DHT22;4551;53.164;8.210;2022-10-23T05:46:19;10.30;99.90
9033;DHT22;4551;53.164;8.210;2022-10-23T05:48:48;10.30;99.90
9033;DHT22;4551;53.164;8.210;2022-10-23T05:51:17;10.30;99.90
9033;DHT22;4551;53.164;8.210;2022-10-23T05:53:47;10.20;99.90
9033;DHT22;4551;53.164;8.210;2022-10-23T05:56:17;12.00;99.90
9033;DHT22;4551;53.164;8.210;2022-10-23T05:58:45;10.20;99.90
9033;DHT22;4551;53.164;8.210;2022-10-23T06:01:13;10.20;99.90
9033;DHT22;4551;53.164;8.210;2022-10-23T06:03:43;10.20;99.90
9033;DHT22;4551;53.164;8.210;2022-10-23T06:06:11;10.20;99.90
9033;DHT22;4551;53.164;8.210;2022-10-23T06:08:38;10.20;99.90
9033;DHT22;4551;53.164;8.210;2022-10-23T06:11:07;10.20;99.90
9033;DHT22;4551;53.164;8.210;2022-10-23T06:13:36;10.10;99.90
9033;DHT22;4551;53.164;8.210;2022-10-23T06:16:08;10.10;99.90
9033;DHT22;4551;53.164;8.210;2022-10-23T06:18:36;10.10;99.90
9033;DHT22;4551;53.164;8.210;2022-10-23T06:21:04;10.10;99.90
9033;DHT22;4551;53.164;8.210;2022-10-23T06:23:33;10.10;99.90
9033;DHT22;4551;53.164;8.210;2022-10-23T06:26:01;10.10;99.90
9033;DHT22;4551;53.164;8.210;2022-10-23T06:28:29;10.10;99.90
9033;DHT22;4551;53.164;8.210;2022-10-23T06:30:59;10.10;99.90
9033;DHT22;4551;53.164;8.210;2022-10-23T06:33:30;10.10;99.90
9033;DHT22;4551;53.164;8.210;2022-10-23T06:35:58;10.10;99.90
9033;DHT22;4551;53.164;8.210;2022-10-23T06:38:26;10.10;99.90
9033;DHT22;4551;53.164;8.210;2022-10-23T06:40:54;10.10;99.90
9033;DHT22;4551;53.164;8.210;2022-10-23T06:43:22;10.10;99.90
9033;DHT22;4551;53.164;8.210;2022-10-23T06:45:50;10.10;99.90
9033;DHT22;4551;53.164;8.210;2022-10-23T06:48:19;10.00;99.90
9033;DHT22;4551;53.164;8.210;2022-10-23T06:50:47;10.00;99.90
9033;DHT22;4551;53.164;8.210;2022-10-23T06:53:15;10.10;99.90
9033;DHT22;4551;53.164;8.210;2022-10-23T06:55:43;10.10;99.90
9033;DHT22;4551;53.164;8.210;2022-10-23T06:58:13;10.10;99.90
9033;DHT22;4551;53.164;8.210;2022-10-23T07:00:41;10.10;99.90
9033;DHT22;4551;53.164;8.210;2022-10-23T07:03:10;10.10;99.90
9033;DHT22;4551;53.164;8.210;2022-10-23T07:05:39;10.10;99.90
9033;DHT22;4551;53.164;8.210;2022-10-23T07:08:10;10.10;99.90
9033;DHT22;4551;53.164;8.210;2022-10-23T07:10:38;10.20;99.90
9033;DHT22;4551;53.164;8.210;2022-10-23T07:13:08;10.20;99.90
9033;DHT22;4551;53.164;8.210;2022-10-23T07:15:36;10.20;99.90
9033;DHT22;4551;53.164;8.210;2022-10-23T07:18:05;10.20;99.90
9033;DHT22;4551;53.164;8.210;2022-10-23T07:20:33;10.20;99.90
9033;DHT22;4551;53.164;8.210;2022-10-23T07:23:02;10.30;99.90
9033;DHT22;4551;53.164;8.210;2022-10-23T07:25:30;10.30;99.90
9033;DHT22;4551;53.164;8.210;2022-10-23T07:27:59;10.30;99.90
9033;DHT22;4551;53.164;8.210;2022-10-23T07:30:27;10.40;99.90
9033;DHT22;4551;53.164;8.210;2022-10-23T07:32:55;10.40;99.90
9033;DHT22;4551;53.164;8.210;2022-10-23T07:35:23;10.40;99.90
9033;DHT22;4551;53.164;8.210;2022-10-23T07:37:51;10.50;99.90
9033;DHT22;4551;53.164;8.210;2022-10-23T07:40:20;10.50;99.90
9033;DHT22;4551;53.164;8.210;2022-10-23T07:42:48;10.50;99.90
9033;DHT22;4551;53.164;8.210;2022-10-23T07:45:16;10.60;99.90
9033;DHT22;4551;53.164;8.210;2022-10-23T07:47:48;10.60;99.90
9033;DHT22;4551;53.164;8.210;2022-10-23T07:50:16;10.70;99.90
9033;DHT22;4551;53.164;8.210;2022-10-23T07:52:44;10.80;99.90
9033;DHT22;4551;53.164;8.210;2022-10-23T07:55:13;10.80;99.90
9033;DHT22;4551;53.164;8.210;2022-10-23T07:57:42;10.90;99.90
9033;DHT22;4551;53.164;8.210;2022-10-23T08:00:10;10.90;99.90
9033;DHT22;4551;53.164;8.210;2022-10-23T08:02:38;10.90;99.90
9033;DHT22;4551;53.164;8.210;2022-10-23T08:05:07;10.90;99.90
9033;DHT22;4551;53.164;8.210;2022-10-23T08:07:35;10.90;99.90
9033;DHT22;4551;53.164;8.210;2022-10-23T08:10:03;10.90;99.90
9033;DHT22;4551;53.164;8.210;2022-10-23T08:12:31;10.90;99.90
9033;DHT22;4551;53.164;8.210;2022-10-23T08:15:01;11.00;99.90
9033;DHT22;4551;53.164;8.210;2022-10-23T08:17:30;11.00;99.90
9033;DHT22;4551;53.164;8.210;2022-10-23T08:19:58;11.10;99.90
9033;DHT22;4551;53.164;8.210;2022-10-23T08:22:26;11.00;99.90
9033;DHT22;4551;53.164;8.210;2022-10-23T08:24:54;11.10;99.90
9033;DHT22;4551;53.164;8.210;2022-10-23T08:27:22;11.10;99.90
9033;DHT22;4551;53.164;8.210;2022-10-23T08:29:49;11.20;99.90
9033;DHT22;4551;53.164;8.210;2022-10-23T08:32:19;11.20;99.90
9033;DHT22;4551;53.164;8.210;2022-10-23T08:34:47;11.20;99.90
9033;DHT22;4551;53.164;8.210;2022-10-23T08:37:15;11.20;99.90
9033;DHT22;4551;53.164;8.210;2022-10-23T08:39:42;11.30;99.90
9033;DHT22;4551;53.164;8.210;2022-10-23T08:42:17;11.30;99.90
9033;DHT22;4551;53.164;8.210;2022-10-23T08:44:49;11.30;99.90
9033;DHT22;4551;53.164;8.210;2022-10-23T08:47:22;11.40;99.90
9033;DHT22;4551;53.164;8.210;2022-10-23T08:49:53;11.40;99.90
9033;DHT22;4551;53.164;8.210;2022-10-23T08:52:24;11.40;99.90
9033;DHT22;4551;53.164;8.210;2022-10-23T08:54:59;11.40;99.90
9033;DHT22;4551;53.164;8.210;2022-10-23T08:57:30;11.50;99.90
9033;DHT22;4551;53.164;8.210;2022-10-23T09:00:07;11.50;99.90
9033;DHT22;4551;53.164;8.210;2022-10-23T09:02:38;11.60;99.90
9033;DHT22;4551;53.164;8.210;2022-10-23T09:05:10;11.70;99.90
9033;DHT22;4551;53.164;8.210;2022-10-23T09:07:41;11.70;99.90
9033;DHT22;4551;53.164;8.210;2022-10-23T09:10:17;11.80;99.90
9033;DHT22;4551;53.164;8.210;2022-10-23T09:12:49;11.80;99.90
9033;DHT22;4551;53.164;8.210;2022-10-23T09:15:19;11.90;99.90
9033;DHT22;4551;53.164;8.210;2022-10-23T09:17:54;11.90;99.90
9033;DHT22;4551;53.164;8.210;2022-10-23T09:20:23;12.00;99.90
9033;DHT22;4551;53.164;8.210;2022-10-23T09:22:53;12.00;99.90
9033;DHT22;4551;53.164;8.210;2022-10-23T09:25:22;11.90;99.90
9033;DHT22;4551;53.164;8.210;2022-10-23T09:27:51;12.10;99.90
9033;DHT22;4551;53.164;8.210;2022-10-23T09:30:26;12.20;99.90
9033;DHT22;4551;53.164;8.210;2022-10-23T09:32:56;12.30;99.90
9033;DHT22;4551;53.164;8.210;2022-10-23T09:35:25;12.30;99.90
9033;DHT22;4551;53.164;8.210;2022-10-23T09:37:53;12.40;99.90
9033;DHT22;4551;53.164;8.210;2022-10-23T09:40:24;12.40;99.90
9033;DHT22;4551;53.164;8.210;2022-10-23T09:42:53;12.50;99.90
9033;DHT22;4551;53.164;8.210;2022-10-23T09:45:22;12.60;99.90
9033;DHT22;4551;53.164;8.210;2022-10-23T09:47:50;12.60;99.90
9033;DHT22;4551;53.164;8.210;2022-10-23T09:50:20;12.70;99.90
9033;DHT22;4551;53.164;8.210;2022-10-23T09:52:48;12.70;99.90
9033;DHT22;4551;53.164;8.210;2022-10-23T09:55:20;12.80;99.90
9033;DHT22;4551;53.164;8.210;2022-10-23T09:57:52;12.90;99.90
9033;DHT22;4551;53.164;8.210;2022-10-23T10:00:21;12.90;99.90
9033;DHT22;4551;53.164;8.210;2022-10-23T10:02:56;12.90;99.90
9033;DHT22;4551;53.164;8.210;2022-10-23T10:05:27;13.00;99.90
9033;DHT22;4551;53.164;8.210;2022-10-23T10:07:55;13.10;99.90
9033;DHT22;4551;53.164;8.210;2022-10-23T10:10:25;13.10;99.90
9033;DHT22;4551;53.164;8.210;2022-10-23T10:12:56;13.20;99.90
9033;DHT22;4551;53.164;8.210;2022-10-23T10:15:26;13.20;99.90
9033;DHT22;4551;53.164;8.210;2022-10-23T10:18:00;13.30;99.90
9033;DHT22;4551;53.164;8.210;2022-10-23T10:20:44;13.30;99.90
9033;DHT22;4551;53.164;8.210;2022-10-23T10:23:16;13.40;99.90
9033;DHT22;4551;53.164;8.210;2022-10-23T10:25:47;13.40;99.90
9033;DHT22;4551;53.164;8.210;2022-10-23T10:28:22;13.50;99.90
9033;DHT22;4551;53.164;8.210;2022-10-23T10:30:55;13.50;99.90
9033;DHT22;4551;53.164;8.210;2022-10-23T10:33:27;13.60;99.90
9033;DHT22;4551;53.164;8.210;2022-10-23T10:36:01;13.60;99.90
9033;DHT22;4551;53.164;8.210;2022-10-23T10:38:41;13.70;99.90
9033;DHT22;4551;53.164;8.210;2022-10-23T10:41:19;13.80;99.90
9033;DHT22;4551;53.164;8.210;2022-10-23T10:43:51;13.80;99.90
9033;DHT22;4551;53.164;8.210;2022-10-23T10:46:25;13.80;99.90
9033;DHT22;4551;53.164;8.210;2022-10-23T10:48:57;13.90;99.90
9033;DHT22;4551;53.164;8.210;2022-10-23T10:51:29;14.00;99.90
9033;DHT22;4551;53.164;8.210;2022-10-23T10:54:11;14.00;99.90
9033;DHT22;4551;53.164;8.210;2022-10-23T10:56:42;14.00;99.90
9033;DHT22;4551;53.164;8.210;2022-10-23T10:59:12;14.10;99.90
9033;DHT22;4551;53.164;8.210;2022-10-23T11:01:41;14.20;99.90
9033;DHT22;4551;53.164;8.210;2022-10-23T11:04:13;14.20;99.90
9033;DHT22;4551;53.164;8.210;2022-10-23T11:06:46;14.30;99.90
9033;DHT22;4551;53.164;8.210;2022-10-23T11:09:16;14.30;99.90
9033;DHT22;4551;53.164;8.210;2022-10-23T11:11:47;14.40;99.90
9033;DHT22;4551;53.164;8.210;2022-10-23T11:14:15;14.50;99.90
9033;DHT22;4551;53.164;8.210;2022-10-23T11:16:44;14.50;99.90
9033;DHT22;4551;53.164;8.210;2022-10-23T11:19:17;14.60;99.90
9033;DHT22;4551;53.164;8.210;2022-10-23T11:21:49;14.60;99.90
9033;DHT22;4551;53.164;8.210;2022-10-23T11:27:11;14.80;99.90
9033;DHT22;4551;53.164;8.210;2022-10-23T11:29:48;14.90;99.90
9033;DHT22;4551;53.164;8.210;2022-10-23T11:32:23;15.00;99.90
9033;DHT22;4551;53.164;8.210;2022-10-23T11:35:02;15.00;99.90
9033;DHT22;4551;53.164;8.210;2022-10-23T11:37:32;15.10;99.90
9033;DHT22;4551;53.164;8.210;2022-10-23T11:40:02;15.30;99.90
9033;DHT22;4551;53.164;8.210;2022-10-23T11:42:45;15.30;99.90
9033;DHT22;4551;53.164;8.210;2022-10-23T11:45:32;15.30;99.90
9033;DHT22;4551;53.164;8.210;2022-10-23T11:48:01;15.50;99.90
9033;DHT22;4551;53.164;8.210;2022-10-23T11:50:30;15.50;99.90
9033;DHT22;4551;53.164;8.210;2022-10-23T11:53:01;15.60;99.90
9033;DHT22;4551;53.164;8.210;2022-10-23T11:55:55;15.70;99.90
9033;DHT22;4551;53.164;8.210;2022-10-23T11:58:24;15.70;99.90
9033;DHT22;4551;53.164;8.210;2022-10-23T12:00:58;15.70;99.90
9033;DHT22;4551;53.164;8.210;2022-10-23T12:03:29;15.80;99.90
9033;DHT22;4551;53.164;8.210;2022-10-23T12:05:59;15.80;99.90
9033;DHT22;4551;53.164;8.210;2022-10-23T12:08:30;16.10;99.90
9033;DHT22;4551;53.164;8.210;2022-10-23T12:10:59;15.90;99.90
9033;DHT22;4551;53.164;8.210;2022-10-23T12:13:28;15.90;99.90
9033;DHT22;4551;53.164;8.210;2022-10-23T12:15:56;16.00;99.90
9033;DHT22;4551;53.164;8.210;2022-10-23T12:18:27;16.00;99.90
9033;DHT22;4551;53.164;8.210;2022-10-23T12:20:55;16.10;99.90
9033;DHT22;4551;53.164;8.210;2022-10-23T12:23:27;16.10;99.90
9033;DHT22;4551;53.164;8.210;2022-10-23T12:26:06;16.10;99.90
9033;DHT22;4551;53.164;8.210;2022-10-23T12:28:40;16.20;99.90
9033;DHT22;4551;53.164;8.210;2022-10-23T12:31:15;16.20;99.90
9033;DHT22;4551;53.164;8.210;2022-10-23T12:33:48;16.20;99.90
9033;DHT22;4551;53.164;8.210;2022-10-23T12:36:24;16.20;99.90
9033;DHT22;4551;53.164;8.210;2022-10-23T12:38:56;16.20;99.90
9033;DHT22;4551;53.164;8.210;2022-10-23T12:41:26;16.20;99.90
9033;DHT22;4551;53.164;8.210;2022-10-23T12:43:55;16.20;99.90
9033;DHT22;4551;53.164;8.210;2022-10-23T12:46:28;16.20;99.90
9033;DHT22;4551;53.164;8.210;2022-10-23T12:48:57;16.20;99.90
9033;DHT22;4551;53.164;8.210;2022-10-23T12:51:27;16.20;99.90
9033;DHT22;4551;53.164;8.210;2022-10-23T12:53:55;16.20;99.90
9033;DHT22;4551;53.164;8.210;2022-10-23T12:56:23;16.20;99.90
9033;DHT22;4551;53.164;8.210;2022-10-23T12:58:53;16.20;99.90
9033;DHT22;4551;53.164;8.210;2022-10-23T13:01:23;16.20;99.90
9033;DHT22;4551;53.164;8.210;2022-10-23T13:03:55;16.20;99.90
9033;DHT22;4551;53.164;8.210;2022-10-23T13:06:24;16.20;99.90
9033;DHT22;4551;53.164;8.210;2022-10-23T13:08:52;16.20;99.90
9033;DHT22;4551;53.164;8.210;2022-10-23T13:11:20;16.20;99.90
9033;DHT22;4551;53.164;8.210;2022-10-23T13:13:48;16.20;99.90
9033;DHT22;4551;53.164;8.210;2022-10-23T13:16:19;16.20;99.90
9033;DHT22;4551;53.164;8.210;2022-10-23T13:18:47;16.20;99.90
9033;DHT22;4551;53.164;8.210;2022-10-23T13:21:17;16.20;99.90
9033;DHT22;4551;53.164;8.210;2022-10-23T13:23:46;16.20;99.90
9033;DHT22;4551;53.164;8.210;2022-10-23T13:26:24;16.20;99.90
9033;DHT22;4551;53.164;8.210;2022-10-23T13:28:55;16.20;99.90
9033;DHT22;4551;53.164;8.210;2022-10-23T13:31:25;16.20;99.90
9033;DHT22;4551;53.164;8.210;2022-10-23T13:34:15;16.20;99.90
9033;DHT22;4551;53.164;8.210;2022-10-23T13:36:51;16.20;99.90
9033;DHT22;4551;53.164;8.210;2022-10-23T13:39:23;16.40;99.90
9033;DHT22;4551;53.164;8.210;2022-10-23T13:41:51;16.20;99.90
9033;DHT22;4551;53.164;8.210;2022-10-23T13:44:20;16.20;99.90
9033;DHT22;4551;53.164;8.210;2022-10-23T13:46:49;16.20;99.90
9033;DHT22;4551;53.164;8.210;2022-10-23T13:49:18;16.20;99.90
9033;DHT22;4551;53.164;8.210;2022-10-23T13:51:47;16.20;99.90
9033;DHT22;4551;53.164;8.210;2022-10-23T13:54:16;16.20;99.90
9033;DHT22;4551;53.164;8.210;2022-10-23T13:56:44;16.20;99.90
9033;DHT22;4551;53.164;8.210;2022-10-23T13:59:15;16.20;99.90
9033;DHT22;4551;53.164;8.210;2022-10-23T14:01:43;16.20;99.90
9033;DHT22;4551;53.164;8.210;2022-10-23T14:04:13;16.20;99.90
9033;DHT22;4551;53.164;8.210;2022-10-23T14:06:41;16.20;99.90
9033;DHT22;4551;53.164;8.210;2022-10-23T14:09:10;16.20;99.90
9033;DHT22;4551;53.164;8.210;2022-10-23T14:11:39;16.20;99.90
9033;DHT22;4551;53.164;8.210;2022-10-23T14:14:06;16.20;99.90
9033;DHT22;4551;53.164;8.210;2022-10-23T14:16:34;16.20;99.90
9033;DHT22;4551;53.164;8.210;2022-10-23T14:19:03;16.20;99.90
9033;DHT22;4551;53.164;8.210;2022-10-23T14:21:32;16.20;99.90
9033;DHT22;4551;53.164;8.210;2022-10-23T14:24:00;16.20;99.90
9033;DHT22;4551;53.164;8.210;2022-10-23T14:26:28;16.20;99.90
9033;DHT22;4551;53.164;8.210;2022-10-23T14:28:57;16.10;99.90
9033;DHT22;4551;53.164;8.210;2022-10-23T14:31:32;16.10;99.90
9033;DHT22;4551;53.164;8.210;2022-10-23T14:34:00;16.10;99.90
9033;DHT22;4551;53.164;8.210;2022-10-23T14:36:28;16.10;99.90
9033;DHT22;4551;53.164;8.210;2022-10-23T14:39:17;16.10;99.90
9033;DHT22;4551;53.164;8.210;2022-10-23T14:41:45;16.10;99.90
9033;DHT22;4551;53.164;8.210;2022-10-23T14:44:13;16.10;99.90
9033;DHT22;4551;53.164;8.210;2022-10-23T14:46:41;16.10;99.90
9033;DHT22;4551;53.164;8.210;2022-10-23T14:49:09;17.40;99.90
9033;DHT22;4551;53.164;8.210;2022-10-23T14:51:37;16.00;99.90
9033;DHT22;4551;53.164;8.210;2022-10-23T14:54:06;16.40;99.90
9033;DHT22;4551;53.164;8.210;2022-10-23T14:56:36;16.00;99.90
9033;DHT22;4551;53.164;8.210;2022-10-23T14:59:05;16.00;99.90
9033;DHT22;4551;53.164;8.210;2022-10-23T15:01:35;16.00;99.90
9033;DHT22;4551;53.164;8.210;2022-10-23T15:04:11;16.00;99.90
9033;DHT22;4551;53.164;8.210;2022-10-23T15:06:40;16.00;99.90
9033;DHT22;4551;53.164;8.210;2022-10-23T15:09:08;16.00;99.90
9033;DHT22;4551;53.164;8.210;2022-10-23T15:11:37;16.00;99.90
9033;DHT22;4551;53.164;8.210;2022-10-23T15:14:05;16.00;99.90
9033;DHT22;4551;53.164;8.210;2022-10-23T15:16:33;15.90;99.90
9033;DHT22;4551;53.164;8.210;2022-10-23T15:19:08;15.90;99.90
9033;DHT22;4551;53.164;8.210;2022-10-23T15:21:42;15.90;99.90
9033;DHT22;4551;53.164;8.210;2022-10-23T15:24:10;15.90;99.90
9033;DHT22;4551;53.164;8.210;2022-10-23T15:26:40;15.90;99.90
9033;DHT22;4551;53.164;8.210;2022-10-23T15:29:09;15.90;99.90
9033;DHT22;4551;53.164;8.210;2022-10-23T15:31:40;15.90;99.90
9033;DHT22;4551;53.164;8.210;2022-10-23T15:34:09;15.90;99.90
9033;DHT22;4551;53.164;8.210;2022-10-23T15:36:37;15.90;99.90
9033;DHT22;4551;53.164;8.210;2022-10-23T15:39:06;15.90;99.90
9033;DHT22;4551;53.164;8.210;2022-10-23T15:41:35;15.80;99.90
9033;DHT22;4551;53.164;8.210;2022-10-23T15:44:05;15.80;99.90
9033;DHT22;4551;53.164;8.210;2022-10-23T15:46:33;15.80;99.90
9033;DHT22;4551;53.164;8.210;2022-10-23T15:49:01;15.80;99.90
9033;DHT22;4551;53.164;8.210;2022-10-23T15:51:30;15.80;99.90
9033;DHT22;4551;53.164;8.210;2022-10-23T15:53:57;15.70;99.90
9033;DHT22;4551;53.164;8.210;2022-10-23T15:56:25;15.70;99.90
9033;DHT22;4551;53.164;8.210;2022-10-23T15:58:53;15.70;99.90
9033;DHT22;4551;53.164;8.210;2022-10-23T16:01:23;15.70;99.90
9033;DHT22;4551;53.164;8.210;2022-10-23T16:03:51;15.70;99.90
9033;DHT22;4551;53.164;8.210;2022-10-23T16:06:19;15.70;99.90
9033;DHT22;4551;53.164;8.210;2022-10-23T16:08:47;15.60;99.90
9033;DHT22;4551;53.164;8.210;2022-10-23T16:11:16;15.60;99.90
9033;DHT22;4551;53.164;8.210;2022-10-23T16:13:44;15.60;99.90
9033;DHT22;4551;53.164;8.210;2022-10-23T16:16:13;15.60;99.90
9033;DHT22;4551;53.164;8.210;2022-10-23T16:18:42;15.60;99.90
9033;DHT22;4551;53.164;8.210;2022-10-23T16:21:14;15.50;99.90
9033;DHT22;4551;53.164;8.210;2022-10-23T16:23:43;15.50;99.90